sensor_id;sensor_type;location;lat;lon;timestamp;P1;durP1;ratioP1;P2;durP2;ratioP2
17347;SDS011;8791;50.876;4.342;2023-05-10T00:01:08;16.40;;;8.13;;
17347;SDS011;8791;50.876;4.342;2023-05-10T00:03:35;15.97;;;8.90;;
17347;SDS011;8791;50.876;4.342;2023-05-10T00:06:02;14.57;;;7.70;;
17347;SDS011;8791;50.876;4.342;2023-05-10T00:08:29;15.20;;;8.70;;
17347;SDS011;8791;50.876;4.342;2023-05-10T00:10:57;12.13;;;7.90;;
17347;SDS011;8791;50.876;4.342;2023-05-10T00:13:25;15.57;;;8.53;;
17347;SDS011;8791;50.876;4.342;2023-05-10T00:15:52;18.60;;;8.60;;
17347;SDS011;8791;50.876;4.342;2023-05-10T00:18:19;13.97;;;8.00;;
17347;SDS011;8791;50.876;4.342;2023-05-10T00:20:46;15.10;;;9.00;;
17347;SDS011;8791;50.876;4.342;2023-05-10T00:23:13;13.00;;;9.20;;
17347;SDS011;8791;50.876;4.342;2023-05-10T00:25:40;16.50;;;9.03;;
17347;SDS011;8791;50.876;4.342;2023-05-10T00:28:09;13.07;;;8.87;;
17347;SDS011;8791;50.876;4.342;2023-05-10T00:30:36;16.20;;;8.60;;
17347;SDS011;8791;50.876;4.342;2023-05-10T00:33:02;10.80;;;8.07;;
17347;SDS011;8791;50.876;4.342;2023-05-10T00:35:29;17.40;;;8.30;;
17347;SDS011;8791;50.876;4.342;2023-05-10T00:37:57;10.50;;;8.37;;
17347;SDS011;8791;50.876;4.342;2023-05-10T00:40:24;16.80;;;8.57;;
17347;SDS011;8791;50.876;4.342;2023-05-10T00:42:51;11.17;;;8.30;;
17347;SDS011;8791;50.876;4.342;2023-05-10T00:45:19;14.93;;;8.90;;
17347;SDS011;8791;50.876;4.342;2023-05-10T00:47:46;17.50;;;8.60;;
17347;SDS011;8791;50.876;4.342;2023-05-10T00:50:13;14.17;;;8.13;;
17347;SDS011;8791;50.876;4.342;2023-05-10T00:52:41;13.40;;;8.33;;
17347;SDS011;8791;50.876;4.342;2023-05-10T00:55:09;12.00;;;8.13;;
17347;SDS011;8791;50.876;4.342;2023-05-10T00:57:37;14.30;;;8.70;;
17347;SDS011;8791;50.876;4.342;2023-05-10T01:00:05;15.13;;;9.00;;
17347;SDS011;8791;50.876;4.342;2023-05-10T01:02:34;10.83;;;8.77;;
17347;SDS011;8791;50.876;4.342;2023-05-10T01:05:01;21.03;;;10.13;;
17347;SDS011;8791;50.876;4.342;2023-05-10T01:07:30;17.93;;;9.53;;
17347;SDS011;8791;50.876;4.342;2023-05-10T01:09:57;21.47;;;10.23;;
17347;SDS011;8791;50.876;4.342;2023-05-10T01:12:24;18.83;;;9.53;;
17347;SDS011;8791;50.876;4.342;2023-05-10T01:14:51;13.27;;;8.63;;
17347;SDS011;8791;50.876;4.342;2023-05-10T01:17:19;21.27;;;8.90;;
17347;SDS011;8791;50.876;4.342;2023-05-10T01:19:48;15.20;;;10.07;;
17347;SDS011;8791;50.876;4.342;2023-05-10T01:22:22;13.80;;;9.43;;
17347;SDS011;8791;50.876;4.342;2023-05-10T01:28:03;18.93;;;10.13;;
17347;SDS011;8791;50.876;4.342;2023-05-10T01:30:50;20.70;;;9.87;;
17347;SDS011;8791;50.876;4.342;2023-05-10T01:33:43;17.87;;;10.90;;
17347;SDS011;8791;50.876;4.342;2023-05-10T01:36:16;18.53;;;10.53;;
17347;SDS011;8791;50.876;4.342;2023-05-10T01:38:51;21.40;;;10.83;;
17347;SDS011;8791;50.876;4.342;2023-05-10T01:41:23;15.23;;;11.63;;
17347;SDS011;8791;50.876;4.342;2023-05-10T01:43:56;17.50;;;10.73;;
17347;SDS011;8791;50.876;4.342;2023-05-10T01:46:30;16.87;;;11.20;;
17347;SDS011;8791;50.876;4.342;2023-05-10T01:49:03;20.03;;;10.97;;
17347;SDS011;8791;50.876;4.342;2023-05-10T01:51:35;17.20;;;11.37;;
17347;SDS011;8791;50.876;4.342;2023-05-10T01:54:07;16.33;;;11.00;;
17347;SDS011;8791;50.876;4.342;2023-05-10T01:56:38;20.83;;;11.37;;
17347;SDS011;8791;50.876;4.342;2023-05-10T01:59:09;20.13;;;11.23;;
17347;SDS011;8791;50.876;4.342;2023-05-10T02:01:39;22.13;;;11.57;;
17347;SDS011;8791;50.876;4.342;2023-05-10T02:04:08;17.37;;;11.57;;
17347;SDS011;8791;50.876;4.342;2023-05-10T02:06:37;20.30;;;10.77;;
17347;SDS011;8791;50.876;4.342;2023-05-10T02:09:05;16.97;;;11.53;;
17347;SDS011;8791;50.876;4.342;2023-05-10T02:11:33;19.93;;;11.17;;
17347;SDS011;8791;50.876;4.342;2023-05-10T02:14:01;17.80;;;11.30;;
17347;SDS011;8791;50.876;4.342;2023-05-10T02:16:29;16.03;;;11.07;;
17347;SDS011;8791;50.876;4.342;2023-05-10T02:18:57;18.33;;;11.40;;
17347;SDS011;8791;50.876;4.342;2023-05-10T02:21:29;21.40;;;11.70;;
17347;SDS011;8791;50.876;4.342;2023-05-10T02:23:57;26.00;;;12.53;;
17347;SDS011;8791;50.876;4.342;2023-05-10T02:26:26;18.90;;;11.63;;
17347;SDS011;8791;50.876;4.342;2023-05-10T02:28:54;19.77;;;12.40;;
17347;SDS011;8791;50.876;4.342;2023-05-10T02:31:23;20.87;;;11.73;;
17347;SDS011;8791;50.876;4.342;2023-05-10T02:33:51;20.47;;;11.47;;
17347;SDS011;8791;50.876;4.342;2023-05-10T02:36:19;18.87;;;11.97;;
17347;SDS011;8791;50.876;4.342;2023-05-10T02:38:49;22.60;;;12.00;;
17347;SDS011;8791;50.876;4.342;2023-05-10T02:41:19;20.37;;;12.00;;
17347;SDS011;8791;50.876;4.342;2023-05-10T02:43:49;22.37;;;12.30;;
17347;SDS011;8791;50.876;4.342;2023-05-10T02:46:17;25.80;;;11.70;;
17347;SDS011;8791;50.876;4.342;2023-05-10T02:48:44;19.87;;;11.47;;
17347;SDS011;8791;50.876;4.342;2023-05-10T02:51:11;25.70;;;11.93;;
17347;SDS011;8791;50.876;4.342;2023-05-10T02:53:43;18.23;;;11.53;;
17347;SDS011;8791;50.876;4.342;2023-05-10T02:56:15;17.37;;;11.00;;
17347;SDS011;8791;50.876;4.342;2023-05-10T02:58:50;17.10;;;10.17;;
17347;SDS011;8791;50.876;4.342;2023-05-10T03:01:17;20.70;;;11.10;;
17347;SDS011;8791;50.876;4.342;2023-05-10T03:03:43;17.17;;;10.03;;
17347;SDS011;8791;50.876;4.342;2023-05-10T03:06:11;17.30;;;11.10;;
17347;SDS011;8791;50.876;4.342;2023-05-10T03:08:37;18.27;;;11.20;;
17347;SDS011;8791;50.876;4.342;2023-05-10T03:11:16;17.87;;;11.10;;
17347;SDS011;8791;50.876;4.342;2023-05-10T03:14:04;17.67;;;10.87;;
17347;SDS011;8791;50.876;4.342;2023-05-10T03:16:38;15.80;;;11.43;;
17347;SDS011;8791;50.876;4.342;2023-05-10T03:19:11;17.20;;;11.10;;
17347;SDS011;8791;50.876;4.342;2023-05-10T03:21:44;19.90;;;12.37;;
17347;SDS011;8791;50.876;4.342;2023-05-10T03:24:17;15.73;;;11.43;;
17347;SDS011;8791;50.876;4.342;2023-05-10T03:26:49;19.43;;;11.70;;
17347;SDS011;8791;50.876;4.342;2023-05-10T03:29:19;21.63;;;12.73;;
17347;SDS011;8791;50.876;4.342;2023-05-10T03:31:48;19.37;;;12.30;;
17347;SDS011;8791;50.876;4.342;2023-05-10T03:34:15;16.80;;;12.30;;
17347;SDS011;8791;50.876;4.342;2023-05-10T03:36:42;18.73;;;12.77;;
17347;SDS011;8791;50.876;4.342;2023-05-10T03:39:09;25.07;;;14.53;;
17347;SDS011;8791;50.876;4.342;2023-05-10T03:41:36;18.00;;;12.73;;
17347;SDS011;8791;50.876;4.342;2023-05-10T03:44:04;22.60;;;14.20;;
17347;SDS011;8791;50.876;4.342;2023-05-10T03:46:31;25.20;;;15.17;;
17347;SDS011;8791;50.876;4.342;2023-05-10T03:48:58;20.70;;;14.03;;
17347;SDS011;8791;50.876;4.342;2023-05-10T03:51:25;24.17;;;15.17;;
17347;SDS011;8791;50.876;4.342;2023-05-10T03:53:53;30.33;;;17.13;;
17347;SDS011;8791;50.876;4.342;2023-05-10T03:56:20;25.37;;;15.33;;
17347;SDS011;8791;50.876;4.342;2023-05-10T03:58:47;31.47;;;16.57;;
17347;SDS011;8791;50.876;4.342;2023-05-10T04:01:15;30.00;;;17.30;;
17347;SDS011;8791;50.876;4.342;2023-05-10T04:03:42;27.60;;;16.53;;
17347;SDS011;8791;50.876;4.342;2023-05-10T04:06:08;36.00;;;17.93;;
17347;SDS011;8791;50.876;4.342;2023-05-10T04:08:36;35.87;;;17.93;;
17347;SDS011;8791;50.876;4.342;2023-05-10T04:11:07;31.33;;;17.20;;
17347;SDS011;8791;50.876;4.342;2023-05-10T04:13:34;30.17;;;17.77;;
17347;SDS011;8791;50.876;4.342;2023-05-10T04:16:01;31.43;;;17.67;;
17347;SDS011;8791;50.876;4.342;2023-05-10T04:18:30;34.07;;;18.90;;
17347;SDS011;8791;50.876;4.342;2023-05-10T04:20:57;39.77;;;20.00;;
17347;SDS011;8791;50.876;4.342;2023-05-10T04:23:24;30.97;;;17.70;;
17347;SDS011;8791;50.876;4.342;2023-05-10T04:25:50;32.77;;;19.63;;
17347;SDS011;8791;50.876;4.342;2023-05-10T04:28:17;37.13;;;18.87;;
17347;SDS011;8791;50.876;4.342;2023-05-10T04:30:44;29.40;;;17.80;;
17347;SDS011;8791;50.876;4.342;2023-05-10T04:33:12;33.07;;;18.50;;
17347;SDS011;8791;50.876;4.342;2023-05-10T04:35:40;34.23;;;17.97;;
17347;SDS011;8791;50.876;4.342;2023-05-10T04:38:07;29.60;;;18.87;;
17347;SDS011;8791;50.876;4.342;2023-05-10T04:40:34;35.47;;;19.70;;
17347;SDS011;8791;50.876;4.342;2023-05-10T04:43:01;34.03;;;19.63;;
17347;SDS011;8791;50.876;4.342;2023-05-10T04:45:28;33.00;;;19.30;;
17347;SDS011;8791;50.876;4.342;2023-05-10T04:47:55;34.80;;;19.73;;
17347;SDS011;8791;50.876;4.342;2023-05-10T04:50:22;36.53;;;19.60;;
17347;SDS011;8791;50.876;4.342;2023-05-10T04:52:50;38.17;;;20.33;;
17347;SDS011;8791;50.876;4.342;2023-05-10T04:55:17;35.03;;;19.90;;
17347;SDS011;8791;50.876;4.342;2023-05-10T04:57:44;31.50;;;18.63;;
17347;SDS011;8791;50.876;4.342;2023-05-10T05:00:11;31.23;;;20.00;;
17347;SDS011;8791;50.876;4.342;2023-05-10T05:02:41;37.17;;;20.13;;
17347;SDS011;8791;50.876;4.342;2023-05-10T05:05:09;31.53;;;20.00;;
17347;SDS011;8791;50.876;4.342;2023-05-10T05:07:36;30.20;;;19.57;;
17347;SDS011;8791;50.876;4.342;2023-05-10T05:10:06;42.57;;;20.13;;
17347;SDS011;8791;50.876;4.342;2023-05-10T05:12:33;33.23;;;19.03;;
17347;SDS011;8791;50.876;4.342;2023-05-10T05:15:00;34.07;;;18.60;;
17347;SDS011;8791;50.876;4.342;2023-05-10T05:17:29;31.20;;;19.03;;
17347;SDS011;8791;50.876;4.342;2023-05-10T05:19:56;31.07;;;19.97;;
17347;SDS011;8791;50.876;4.342;2023-05-10T05:22:23;37.57;;;19.90;;
17347;SDS011;8791;50.876;4.342;2023-05-10T05:24:53;33.33;;;20.00;;
17347;SDS011;8791;50.876;4.342;2023-05-10T05:27:22;29.23;;;19.43;;
17347;SDS011;8791;50.876;4.342;2023-05-10T05:29:52;35.00;;;19.13;;
17347;SDS011;8791;50.876;4.342;2023-05-10T05:32:19;47.90;;;22.03;;
17347;SDS011;8791;50.876;4.342;2023-05-10T05:34:46;55.10;;;21.07;;
17347;SDS011;8791;50.876;4.342;2023-05-10T05:37:13;39.83;;;17.77;;
17347;SDS011;8791;50.876;4.342;2023-05-10T05:39:40;33.00;;;18.57;;
17347;SDS011;8791;50.876;4.342;2023-05-10T05:42:07;37.10;;;18.63;;
17347;SDS011;8791;50.876;4.342;2023-05-10T05:44:36;48.33;;;18.47;;
17347;SDS011;8791;50.876;4.342;2023-05-10T05:47:04;25.00;;;14.40;;
17347;SDS011;8791;50.876;4.342;2023-05-10T05:49:31;15.63;;;13.03;;
17347;SDS011;8791;50.876;4.342;2023-05-10T05:51:58;23.53;;;13.07;;
17347;SDS011;8791;50.876;4.342;2023-05-10T05:54:26;25.00;;;13.37;;
17347;SDS011;8791;50.876;4.342;2023-05-10T05:56:53;23.00;;;12.90;;
17347;SDS011;8791;50.876;4.342;2023-05-10T05:59:21;24.47;;;12.83;;
17347;SDS011;8791;50.876;4.342;2023-05-10T06:01:49;22.20;;;13.93;;
17347;SDS011;8791;50.876;4.342;2023-05-10T06:04:16;19.07;;;12.37;;
17347;SDS011;8791;50.876;4.342;2023-05-10T06:06:43;19.07;;;12.50;;
17347;SDS011;8791;50.876;4.342;2023-05-10T06:09:10;22.57;;;12.33;;
17347;SDS011;8791;50.876;4.342;2023-05-10T06:11:37;17.20;;;12.53;;
17347;SDS011;8791;50.876;4.342;2023-05-10T06:14:04;23.40;;;12.77;;
17347;SDS011;8791;50.876;4.342;2023-05-10T06:16:32;20.90;;;12.50;;
17347;SDS011;8791;50.876;4.342;2023-05-10T06:19:01;22.83;;;13.13;;
17347;SDS011;8791;50.876;4.342;2023-05-10T06:21:28;24.70;;;14.93;;
17347;SDS011;8791;50.876;4.342;2023-05-10T06:23:55;24.00;;;13.90;;
17347;SDS011;8791;50.876;4.342;2023-05-10T06:26:22;39.40;;;16.27;;
17347;SDS011;8791;50.876;4.342;2023-05-10T06:28:49;26.37;;;14.67;;
17347;SDS011;8791;50.876;4.342;2023-05-10T06:31:15;25.37;;;15.07;;
17347;SDS011;8791;50.876;4.342;2023-05-10T06:33:42;29.17;;;15.67;;
17347;SDS011;8791;50.876;4.342;2023-05-10T06:36:11;27.03;;;15.00;;
17347;SDS011;8791;50.876;4.342;2023-05-10T06:38:38;31.93;;;15.63;;
17347;SDS011;8791;50.876;4.342;2023-05-10T06:41:05;33.00;;;15.83;;
17347;SDS011;8791;50.876;4.342;2023-05-10T06:43:32;29.93;;;17.03;;
17347;SDS011;8791;50.876;4.342;2023-05-10T06:45:59;34.60;;;16.30;;
17347;SDS011;8791;50.876;4.342;2023-05-10T06:48:26;25.53;;;15.07;;
17347;SDS011;8791;50.876;4.342;2023-05-10T06:50:53;29.07;;;13.00;;
17347;SDS011;8791;50.876;4.342;2023-05-10T06:53:21;17.27;;;11.93;;
17347;SDS011;8791;50.876;4.342;2023-05-10T06:55:48;22.03;;;10.37;;
17347;SDS011;8791;50.876;4.342;2023-05-10T06:58:16;16.23;;;10.47;;
17347;SDS011;8791;50.876;4.342;2023-05-10T07:00:42;22.77;;;9.07;;
17347;SDS011;8791;50.876;4.342;2023-05-10T07:03:10;23.07;;;10.30;;
17347;SDS011;8791;50.876;4.342;2023-05-10T07:05:37;16.80;;;10.30;;
17347;SDS011;8791;50.876;4.342;2023-05-10T07:08:04;77.80;;;41.23;;
17347;SDS011;8791;50.876;4.342;2023-05-10T07:10:33;29.17;;;11.50;;
17347;SDS011;8791;50.876;4.342;2023-05-10T07:12:59;26.23;;;12.03;;
17347;SDS011;8791;50.876;4.342;2023-05-10T07:15:26;27.20;;;12.20;;
17347;SDS011;8791;50.876;4.342;2023-05-10T07:17:53;25.90;;;13.77;;
17347;SDS011;8791;50.876;4.342;2023-05-10T07:20:20;33.57;;;14.63;;
17347;SDS011;8791;50.876;4.342;2023-05-10T07:22:47;29.40;;;14.20;;
17347;SDS011;8791;50.876;4.342;2023-05-10T07:25:14;27.10;;;14.13;;
17347;SDS011;8791;50.876;4.342;2023-05-10T07:27:42;39.63;;;14.83;;
17347;SDS011;8791;50.876;4.342;2023-05-10T07:30:10;27.07;;;14.40;;
17347;SDS011;8791;50.876;4.342;2023-05-10T07:32:38;33.57;;;14.17;;
17347;SDS011;8791;50.876;4.342;2023-05-10T07:35:07;26.40;;;13.13;;
17347;SDS011;8791;50.876;4.342;2023-05-10T07:37:34;26.60;;;13.23;;
17347;SDS011;8791;50.876;4.342;2023-05-10T07:40:01;22.27;;;12.27;;
17347;SDS011;8791;50.876;4.342;2023-05-10T07:42:28;27.17;;;12.63;;
17347;SDS011;8791;50.876;4.342;2023-05-10T07:44:56;30.43;;;11.23;;
17347;SDS011;8791;50.876;4.342;2023-05-10T07:47:23;31.83;;;11.30;;
17347;SDS011;8791;50.876;4.342;2023-05-10T07:49:51;18.77;;;8.57;;
17347;SDS011;8791;50.876;4.342;2023-05-10T07:52:17;20.40;;;8.07;;
17347;SDS011;8791;50.876;4.342;2023-05-10T07:54:44;10.83;;;8.80;;
17347;SDS011;8791;50.876;4.342;2023-05-10T07:57:11;21.80;;;9.53;;
17347;SDS011;8791;50.876;4.342;2023-05-10T07:59:42;24.97;;;10.53;;
17347;SDS011;8791;50.876;4.342;2023-05-10T08:02:11;22.97;;;9.27;;
17347;SDS011;8791;50.876;4.342;2023-05-10T08:04:38;19.47;;;10.07;;
17347;SDS011;8791;50.876;4.342;2023-05-10T08:07:05;17.73;;;9.13;;
17347;SDS011;8791;50.876;4.342;2023-05-10T08:09:32;22.83;;;9.33;;
17347;SDS011;8791;50.876;4.342;2023-05-10T08:11:59;22.23;;;9.77;;
17347;SDS011;8791;50.876;4.342;2023-05-10T08:14:27;16.80;;;8.97;;
17347;SDS011;8791;50.876;4.342;2023-05-10T08:16:55;12.90;;;8.67;;
17347;SDS011;8791;50.876;4.342;2023-05-10T08:19:23;16.63;;;9.17;;
17347;SDS011;8791;50.876;4.342;2023-05-10T08:21:50;13.30;;;8.77;;
17347;SDS011;8791;50.876;4.342;2023-05-10T08:24:17;9.50;;;7.60;;
17347;SDS011;8791;50.876;4.342;2023-05-10T08:26:44;11.43;;;7.70;;
17347;SDS011;8791;50.876;4.342;2023-05-10T08:29:11;10.47;;;7.57;;
17347;SDS011;8791;50.876;4.342;2023-05-10T08:31:37;12.47;;;6.60;;
17347;SDS011;8791;50.876;4.342;2023-05-10T08:34:04;8.03;;;6.50;;
17347;SDS011;8791;50.876;4.342;2023-05-10T08:36:33;17.03;;;7.20;;
17347;SDS011;8791;50.876;4.342;2023-05-10T08:39:00;11.43;;;6.40;;
17347;SDS011;8791;50.876;4.342;2023-05-10T08:41:27;9.97;;;6.37;;
17347;SDS011;8791;50.876;4.342;2023-05-10T08:43:54;17.87;;;6.90;;
17347;SDS011;8791;50.876;4.342;2023-05-10T08:46:22;17.07;;;8.10;;
17347;SDS011;8791;50.876;4.342;2023-05-10T08:48:49;8.30;;;7.37;;
17347;SDS011;8791;50.876;4.342;2023-05-10T08:51:18;9.03;;;7.37;;
17347;SDS011;8791;50.876;4.342;2023-05-10T08:53:53;14.67;;;7.17;;
17347;SDS011;8791;50.876;4.342;2023-05-10T08:56:20;12.37;;;7.67;;
17347;SDS011;8791;50.876;4.342;2023-05-10T08:58:54;11.63;;;7.57;;
17347;SDS011;8791;50.876;4.342;2023-05-10T09:01:32;8.50;;;7.10;;
17347;SDS011;8791;50.876;4.342;2023-05-10T09:04:02;10.27;;;7.37;;
17347;SDS011;8791;50.876;4.342;2023-05-10T09:06:29;16.87;;;8.27;;
17347;SDS011;8791;50.876;4.342;2023-05-10T09:08:58;20.00;;;8.30;;
17347;SDS011;8791;50.876;4.342;2023-05-10T09:11:26;27.40;;;11.20;;
17347;SDS011;8791;50.876;4.342;2023-05-10T09:13:55;15.73;;;6.83;;
17347;SDS011;8791;50.876;4.342;2023-05-10T09:16:22;9.73;;;7.20;;
17347;SDS011;8791;50.876;4.342;2023-05-10T09:18:50;7.80;;;7.00;;
17347;SDS011;8791;50.876;4.342;2023-05-10T09:21:17;12.37;;;8.00;;
17347;SDS011;8791;50.876;4.342;2023-05-10T09:23:46;14.67;;;7.23;;
17347;SDS011;8791;50.876;4.342;2023-05-10T09:26:16;12.47;;;6.50;;
17347;SDS011;8791;50.876;4.342;2023-05-10T09:28:50;11.37;;;7.13;;
17347;SDS011;8791;50.876;4.342;2023-05-10T09:31:18;8.43;;;7.17;;
17347;SDS011;8791;50.876;4.342;2023-05-10T09:33:45;46.80;;;13.63;;
17347;SDS011;8791;50.876;4.342;2023-05-10T09:36:12;9.30;;;7.10;;
17347;SDS011;8791;50.876;4.342;2023-05-10T09:38:47;7.63;;;6.80;;
17347;SDS011;8791;50.876;4.342;2023-05-10T09:41:18;8.00;;;7.20;;
17347;SDS011;8791;50.876;4.342;2023-05-10T09:43:47;8.03;;;6.63;;
17347;SDS011;8791;50.876;4.342;2023-05-10T09:46:14;9.43;;;7.40;;
17347;SDS011;8791;50.876;4.342;2023-05-10T09:48:43;10.07;;;6.93;;
17347;SDS011;8791;50.876;4.342;2023-05-10T09:51:10;11.17;;;7.60;;
17347;SDS011;8791;50.876;4.342;2023-05-10T09:53:44;9.90;;;7.63;;
17347;SDS011;8791;50.876;4.342;2023-05-10T09:56:11;15.10;;;8.70;;
17347;SDS011;8791;50.876;4.342;2023-05-10T09:58:40;12.60;;;7.60;;
17347;SDS011;8791;50.876;4.342;2023-05-10T10:01:10;8.20;;;7.13;;
17347;SDS011;8791;50.876;4.342;2023-05-10T10:03:41;15.80;;;10.33;;
17347;SDS011;8791;50.876;4.342;2023-05-10T10:06:08;13.37;;;8.10;;
17347;SDS011;8791;50.876;4.342;2023-05-10T10:08:35;8.57;;;7.20;;
17347;SDS011;8791;50.876;4.342;2023-05-10T10:11:02;9.00;;;7.63;;
17347;SDS011;8791;50.876;4.342;2023-05-10T10:13:30;11.27;;;7.83;;
17347;SDS011;8791;50.876;4.342;2023-05-10T10:15:59;9.83;;;6.90;;
17347;SDS011;8791;50.876;4.342;2023-05-10T10:18:26;7.43;;;6.20;;
17347;SDS011;8791;50.876;4.342;2023-05-10T10:20:53;6.97;;;6.27;;
17347;SDS011;8791;50.876;4.342;2023-05-10T10:23:21;14.00;;;7.00;;
17347;SDS011;8791;50.876;4.342;2023-05-10T10:25:48;8.33;;;6.70;;
17347;SDS011;8791;50.876;4.342;2023-05-10T10:28:21;11.43;;;6.10;;
17347;SDS011;8791;50.876;4.342;2023-05-10T10:30:54;8.33;;;6.37;;
17347;SDS011;8791;50.876;4.342;2023-05-10T10:33:30;11.27;;;6.23;;
17347;SDS011;8791;50.876;4.342;2023-05-10T10:36:05;9.27;;;6.40;;
17347;SDS011;8791;50.876;4.342;2023-05-10T10:38:36;7.07;;;5.93;;
17347;SDS011;8791;50.876;4.342;2023-05-10T10:41:09;7.97;;;6.33;;
17347;SDS011;8791;50.876;4.342;2023-05-10T10:43:36;10.60;;;7.37;;
17347;SDS011;8791;50.876;4.342;2023-05-10T10:46:10;7.03;;;6.33;;
17347;SDS011;8791;50.876;4.342;2023-05-10T10:48:40;7.77;;;6.20;;
17347;SDS011;8791;50.876;4.342;2023-05-10T10:51:07;11.13;;;7.83;;
17347;SDS011;8791;50.876;4.342;2023-05-10T10:53:34;7.50;;;6.23;;
17347;SDS011;8791;50.876;4.342;2023-05-10T10:56:05;6.43;;;5.80;;
17347;SDS011;8791;50.876;4.342;2023-05-10T10:58:37;8.67;;;6.80;;
17347;SDS011;8791;50.876;4.342;2023-05-10T11:01:14;7.33;;;6.30;;
17347;SDS011;8791;50.876;4.342;2023-05-10T11:03:55;8.60;;;6.90;;
17347;SDS011;8791;50.876;4.342;2023-05-10T11:06:44;7.10;;;6.20;;
17347;SDS011;8791;50.876;4.342;2023-05-10T11:09:11;7.30;;;6.67;;
17347;SDS011;8791;50.876;4.342;2023-05-10T11:11:48;8.93;;;6.33;;
17347;SDS011;8791;50.876;4.342;2023-05-10T11:14:19;7.27;;;6.50;;
17347;SDS011;8791;50.876;4.342;2023-05-10T11:16:47;10.73;;;6.80;;
17347;SDS011;8791;50.876;4.342;2023-05-10T11:19:16;12.20;;;6.77;;
17347;SDS011;8791;50.876;4.342;2023-05-10T11:21:45;6.83;;;5.90;;
17347;SDS011;8791;50.876;4.342;2023-05-10T11:24:14;8.77;;;5.90;;
17347;SDS011;8791;50.876;4.342;2023-05-10T11:26:42;6.70;;;6.10;;
17347;SDS011;8791;50.876;4.342;2023-05-10T11:29:09;8.20;;;6.47;;
17347;SDS011;8791;50.876;4.342;2023-05-10T11:31:41;8.63;;;6.40;;
17347;SDS011;8791;50.876;4.342;2023-05-10T11:34:10;9.20;;;6.20;;
17347;SDS011;8791;50.876;4.342;2023-05-10T11:36:39;7.43;;;6.20;;
17347;SDS011;8791;50.876;4.342;2023-05-10T11:39:05;10.00;;;7.27;;
17347;SDS011;8791;50.876;4.342;2023-05-10T11:41:32;9.67;;;7.23;;
17347;SDS011;8791;50.876;4.342;2023-05-10T11:43:59;42.03;;;18.23;;
17347;SDS011;8791;50.876;4.342;2023-05-10T11:46:27;10.60;;;7.50;;
17347;SDS011;8791;50.876;4.342;2023-05-10T11:48:55;8.15;;;7.25;;
17347;SDS011;8791;50.876;4.342;2023-05-10T11:51:26;9.15;;;6.88;;
17347;SDS011;8791;50.876;4.342;2023-05-10T11:53:55;7.77;;;6.97;;
17347;SDS011;8791;50.876;4.342;2023-05-10T11:56:23;14.37;;;7.87;;
17347;SDS011;8791;50.876;4.342;2023-05-10T11:58:54;11.83;;;6.80;;
17347;SDS011;8791;50.876;4.342;2023-05-10T12:01:22;9.70;;;6.60;;
17347;SDS011;8791;50.876;4.342;2023-05-10T12:03:50;9.93;;;6.90;;
17347;SDS011;8791;50.876;4.342;2023-05-10T12:06:19;9.80;;;7.10;;
17347;SDS011;8791;50.876;4.342;2023-05-10T12:08:47;17.65;;;8.25;;
17347;SDS011;8791;50.876;4.342;2023-05-10T12:11:19;11.37;;;7.40;;
17347;SDS011;8791;50.876;4.342;2023-05-10T12:13:50;9.95;;;8.00;;
17347;SDS011;8791;50.876;4.342;2023-05-10T12:16:18;12.38;;;7.20;;
17347;SDS011;8791;50.876;4.342;2023-05-10T12:18:48;8.38;;;7.47;;
17347;SDS011;8791;50.876;4.342;2023-05-10T12:21:16;8.93;;;6.90;;
17347;SDS011;8791;50.876;4.342;2023-05-10T12:23:45;10.85;;;7.85;;
17347;SDS011;8791;50.876;4.342;2023-05-10T12:26:12;8.20;;;7.40;;
17347;SDS011;8791;50.876;4.342;2023-05-10T12:28:40;8.03;;;7.20;;
17347;SDS011;8791;50.876;4.342;2023-05-10T12:31:07;15.00;;;7.50;;
17347;SDS011;8791;50.876;4.342;2023-05-10T12:33:35;10.03;;;7.07;;
17347;SDS011;8791;50.876;4.342;2023-05-10T12:36:05;8.17;;;6.97;;
17347;SDS011;8791;50.876;4.342;2023-05-10T12:38:32;7.13;;;6.43;;
17347;SDS011;8791;50.876;4.342;2023-05-10T12:41:02;9.20;;;7.23;;
17347;SDS011;8791;50.876;4.342;2023-05-10T12:43:31;7.90;;;7.10;;
17347;SDS011;8791;50.876;4.342;2023-05-10T12:46:05;9.23;;;6.50;;
17347;SDS011;8791;50.876;4.342;2023-05-10T12:48:33;14.57;;;6.55;;
17347;SDS011;8791;50.876;4.342;2023-05-10T12:51:00;7.72;;;6.57;;
17347;SDS011;8791;50.876;4.342;2023-05-10T12:53:27;7.13;;;5.75;;
17347;SDS011;8791;50.876;4.342;2023-05-10T12:55:54;7.40;;;6.70;;
17347;SDS011;8791;50.876;4.342;2023-05-10T12:58:21;8.57;;;5.75;;
17347;SDS011;8791;50.876;4.342;2023-05-10T13:00:48;5.57;;;4.85;;
17347;SDS011;8791;50.876;4.342;2023-05-10T13:03:18;13.27;;;5.28;;
17347;SDS011;8791;50.876;4.342;2023-05-10T13:05:45;5.40;;;4.90;;
17347;SDS011;8791;50.876;4.342;2023-05-10T13:08:12;9.02;;;5.15;;
17347;SDS011;8791;50.876;4.342;2023-05-10T13:10:43;6.00;;;5.40;;
17347;SDS011;8791;50.876;4.342;2023-05-10T13:13:10;6.03;;;5.38;;
17347;SDS011;8791;50.876;4.342;2023-05-10T13:15:46;5.53;;;5.03;;
17347;SDS011;8791;50.876;4.342;2023-05-10T13:18:13;5.20;;;4.78;;
17347;SDS011;8791;50.876;4.342;2023-05-10T13:20:41;7.55;;;5.03;;
17347;SDS011;8791;50.876;4.342;2023-05-10T13:23:09;7.95;;;4.85;;
17347;SDS011;8791;50.876;4.342;2023-05-10T13:25:36;8.52;;;5.95;;
17347;SDS011;8791;50.876;4.342;2023-05-10T13:28:03;7.13;;;6.18;;
17347;SDS011;8791;50.876;4.342;2023-05-10T13:30:30;7.07;;;6.03;;
17347;SDS011;8791;50.876;4.342;2023-05-10T13:32:57;6.78;;;5.95;;
17347;SDS011;8791;50.876;4.342;2023-05-10T13:35:24;7.45;;;6.47;;
17347;SDS011;8791;50.876;4.342;2023-05-10T13:37:52;5.97;;;5.30;;
17347;SDS011;8791;50.876;4.342;2023-05-10T13:40:21;9.93;;;6.50;;
17347;SDS011;8791;50.876;4.342;2023-05-10T13:42:48;10.07;;;6.50;;
17347;SDS011;8791;50.876;4.342;2023-05-10T13:45:15;14.80;;;8.13;;
17347;SDS011;8791;50.876;4.342;2023-05-10T13:47:42;12.65;;;7.28;;
17347;SDS011;8791;50.876;4.342;2023-05-10T13:50:10;9.27;;;7.50;;
17347;SDS011;8791;50.876;4.342;2023-05-10T13:52:37;7.97;;;7.28;;
17347;SDS011;8791;50.876;4.342;2023-05-10T13:55:06;7.78;;;6.75;;
17347;SDS011;8791;50.876;4.342;2023-05-10T13:57:33;11.55;;;7.82;;
17347;SDS011;8791;50.876;4.342;2023-05-10T14:00:01;11.55;;;9.10;;
17347;SDS011;8791;50.876;4.342;2023-05-10T14:02:28;10.70;;;8.73;;
17347;SDS011;8791;50.876;4.342;2023-05-10T14:04:55;9.43;;;8.52;;
17347;SDS011;8791;50.876;4.342;2023-05-10T14:07:22;12.02;;;8.20;;
17347;SDS011;8791;50.876;4.342;2023-05-10T14:09:48;12.70;;;8.65;;
17347;SDS011;8791;50.876;4.342;2023-05-10T14:12:17;12.18;;;8.40;;
17347;SDS011;8791;50.876;4.342;2023-05-10T14:14:44;13.50;;;9.10;;
17347;SDS011;8791;50.876;4.342;2023-05-10T14:17:11;16.88;;;10.38;;
17347;SDS011;8791;50.876;4.342;2023-05-10T14:19:44;11.30;;;8.98;;
17347;SDS011;8791;50.876;4.342;2023-05-10T14:22:11;10.18;;;9.13;;
17347;SDS011;8791;50.876;4.342;2023-05-10T14:24:38;13.65;;;9.50;;
17347;SDS011;8791;50.876;4.342;2023-05-10T14:27:05;15.15;;;10.05;;
17347;SDS011;8791;50.876;4.342;2023-05-10T14:29:33;11.48;;;8.60;;
17347;SDS011;8791;50.876;4.342;2023-05-10T14:32:00;9.68;;;8.35;;
17347;SDS011;8791;50.876;4.342;2023-05-10T14:34:27;13.27;;;8.85;;
17347;SDS011;8791;50.876;4.342;2023-05-10T14:36:54;14.02;;;8.98;;
17347;SDS011;8791;50.876;4.342;2023-05-10T14:39:22;9.98;;;8.13;;
17347;SDS011;8791;50.876;4.342;2023-05-10T14:41:54;9.57;;;8.50;;
17347;SDS011;8791;50.876;4.342;2023-05-10T14:44:21;11.35;;;9.40;;
17347;SDS011;8791;50.876;4.342;2023-05-10T14:46:50;13.95;;;9.70;;
17347;SDS011;8791;50.876;4.342;2023-05-10T14:49:17;10.43;;;9.38;;
17347;SDS011;8791;50.876;4.342;2023-05-10T14:51:44;18.88;;;14.60;;
17347;SDS011;8791;50.876;4.342;2023-05-10T14:54:11;11.60;;;9.07;;
17347;SDS011;8791;50.876;4.342;2023-05-10T14:56:38;11.95;;;9.20;;